Terminal Aerodrome Forecast
Issued by NWS Omaha/Valley, NE

Home | Current Version | Previous Version | Graphics & Text | Print | Product List | Glossary On
Versions: 1 2 3 4 5 6 7 8 9 10 11 12 13 14 15 16 17 18 19 20 21 22 23 24 25 26 27 28 29 30 31 32 33 34 35 36 37 38 39 40 41 42 43 44 45 46 47 48 49 50
000
FTUS43 KOAX 242340
TAFOFK
TAF
KOFK 242340Z 2500/2524 VRB03KT P6SM BKN025 OVC035
      TEMPO 2502/2505 SCT025 BKN035
     FM250500 VRB03KT 6SM BR OVC015
      TEMPO 2508/2512 3SM -SHRA BR BKN005
     FM251200 19003KT 2SM BR OVC005
     FM251500 18006KT P6SM OVC015
     FM251700 19009KT P6SM OVC050 PROB30 2520/2522 5SM TSRA
      BKN025CB=

USA.gov is the U.S. government's official web portal to all federal, state and local government web resources and services.